sensor_id;sensor_type;location;lat;lon;timestamp;P1;P2;P0
49686;PMS5003;36064;38.180;-122.272;2023-05-18T00:00:00;5.4;4.6;
49686;PMS5003;36064;38.180;-122.272;2023-05-18T00:05:00;5.0;5.0;
49686;PMS5003;36064;38.180;-122.272;2023-05-18T00:10:00;8.6;5.8;
49686;PMS5003;36064;38.180;-122.272;2023-05-18T00:15:00;8.2;5.6;
49686;PMS5003;36064;38.180;-122.272;2023-05-18T00:20:00;4.4;4.4;
49686;PMS5003;36064;38.180;-122.272;2023-05-18T00:25:00;3.6;3.6;
49686;PMS5003;36064;38.180;-122.272;2023-05-18T00:30:00;4.0;3.6;
49686;PMS5003;36064;38.180;-122.272;2023-05-18T00:35:00;4.6;4.2;
49686;PMS5003;36064;38.180;-122.272;2023-05-18T00:40:00;4.2;4.2;
49686;PMS5003;36064;38.180;-122.272;2023-05-18T00:45:00;6.4;5.2;
49686;PMS5003;36064;38.180;-122.272;2023-05-18T00:50:00;4.6;4.6;
49686;PMS5003;36064;38.180;-122.272;2023-05-18T00:55:00;6.0;5.2;
49686;PMS5003;36064;38.180;-122.272;2023-05-18T01:00:00;4.0;3.8;
49686;PMS5003;36064;38.180;-122.272;2023-05-18T01:05:00;3.6;3.6;
49686;PMS5003;36064;38.180;-122.272;2023-05-18T01:10:00;3.6;3.6;
49686;PMS5003;36064;38.180;-122.272;2023-05-18T01:15:02;3.6;3.6;
49686;PMS5003;36064;38.180;-122.272;2023-05-18T01:20:08;4.2;4.2;
49686;PMS5003;36064;38.180;-122.272;2023-05-18T01:25:03;4.2;4.2;
49686;PMS5003;36064;38.180;-122.272;2023-05-18T01:30:00;5.0;4.6;
49686;PMS5003;36064;38.180;-122.272;2023-05-18T01:35:00;4.0;3.8;
49686;PMS5003;36064;38.180;-122.272;2023-05-18T01:40:00;5.2;3.6;
49686;PMS5003;36064;38.180;-122.272;2023-05-18T01:45:01;5.4;5.4;
49686;PMS5003;36064;38.180;-122.272;2023-05-18T01:50:01;4.0;4.0;
49686;PMS5003;36064;38.180;-122.272;2023-05-18T01:55:02;5.0;4.0;
49686;PMS5003;36064;38.180;-122.272;2023-05-18T02:00:00;5.2;4.8;
49686;PMS5003;36064;38.180;-122.272;2023-05-18T02:05:01;7.2;6.0;
49686;PMS5003;36064;38.180;-122.272;2023-05-18T02:10:00;5.2;5.2;
49686;PMS5003;36064;38.180;-122.272;2023-05-18T02:15:00;4.8;5.4;
49686;PMS5003;36064;38.180;-122.272;2023-05-18T02:20:00;6.2;5.2;
49686;PMS5003;36064;38.180;-122.272;2023-05-18T02:25:00;5.2;4.8;
49686;PMS5003;36064;38.180;-122.272;2023-05-18T02:30:00;4.8;4.4;
49686;PMS5003;36064;38.180;-122.272;2023-05-18T02:35:00;5.2;5.0;
49686;PMS5003;36064;38.180;-122.272;2023-05-18T02:40:00;5.4;5.4;
49686;PMS5003;36064;38.180;-122.272;2023-05-18T02:45:00;5.4;5.4;
49686;PMS5003;36064;38.180;-122.272;2023-05-18T02:50:01;6.2;5.6;
49686;PMS5003;36064;38.180;-122.272;2023-05-18T02:55:00;6.4;5.2;
49686;PMS5003;36064;38.180;-122.272;2023-05-18T03:00:00;5.2;5.0;
49686;PMS5003;36064;38.180;-122.272;2023-05-18T03:05:00;5.8;5.0;
49686;PMS5003;36064;38.180;-122.272;2023-05-18T03:10:01;7.4;6.2;
49686;PMS5003;36064;38.180;-122.272;2023-05-18T03:15:00;9.0;7.6;
49686;PMS5003;36064;38.180;-122.272;2023-05-18T03:20:00;6.0;6.0;
49686;PMS5003;36064;38.180;-122.272;2023-05-18T03:25:00;6.4;6.4;
49686;PMS5003;36064;38.180;-122.272;2023-05-18T03:30:00;8.2;7.0;
49686;PMS5003;36064;38.180;-122.272;2023-05-18T03:35:00;8.2;7.8;
49686;PMS5003;36064;38.180;-122.272;2023-05-18T03:40:07;6.4;5.4;
49686;PMS5003;36064;38.180;-122.272;2023-05-18T03:45:00;7.6;6.2;
49686;PMS5003;36064;38.180;-122.272;2023-05-18T03:50:00;6.6;6.0;
49686;PMS5003;36064;38.180;-122.272;2023-05-18T03:55:00;8.0;6.8;
49686;PMS5003;36064;38.180;-122.272;2023-05-18T04:00:00;8.2;7.0;
49686;PMS5003;36064;38.180;-122.272;2023-05-18T04:05:00;11.2;9.8;
49686;PMS5003;36064;38.180;-122.272;2023-05-18T04:10:00;6.8;6.8;
49686;PMS5003;36064;38.180;-122.272;2023-05-18T04:15:00;7.4;7.0;
49686;PMS5003;36064;38.180;-122.272;2023-05-18T04:20:00;8.0;7.2;
49686;PMS5003;36064;38.180;-122.272;2023-05-18T04:25:00;6.0;5.8;
49686;PMS5003;36064;38.180;-122.272;2023-05-18T04:30:00;6.0;6.0;
49686;PMS5003;36064;38.180;-122.272;2023-05-18T04:35:01;6.4;6.0;
49686;PMS5003;36064;38.180;-122.272;2023-05-18T04:40:00;7.2;7.6;
49686;PMS5003;36064;38.180;-122.272;2023-05-18T04:45:01;7.8;6.4;
49686;PMS5003;36064;38.180;-122.272;2023-05-18T04:50:00;8.2;7.4;
49686;PMS5003;36064;38.180;-122.272;2023-05-18T04:55:00;8.2;8.2;
49686;PMS5003;36064;38.180;-122.272;2023-05-18T05:00:00;8.0;6.6;
49686;PMS5003;36064;38.180;-122.272;2023-05-18T05:05:00;8.8;7.4;
49686;PMS5003;36064;38.180;-122.272;2023-05-18T05:10:00;7.8;6.2;
49686;PMS5003;36064;38.180;-122.272;2023-05-18T05:15:00;8.2;6.0;
49686;PMS5003;36064;38.180;-122.272;2023-05-18T05:20:00;7.6;6.4;
49686;PMS5003;36064;38.180;-122.272;2023-05-18T05:25:00;10.0;8.2;
49686;PMS5003;36064;38.180;-122.272;2023-05-18T05:30:00;13.6;13.2;
49686;PMS5003;36064;38.180;-122.272;2023-05-18T05:35:00;11.2;7.6;
49686;PMS5003;36064;38.180;-122.272;2023-05-18T05:40:00;8.2;7.6;
49686;PMS5003;36064;38.180;-122.272;2023-05-18T05:45:00;8.6;7.2;
49686;PMS5003;36064;38.180;-122.272;2023-05-18T05:50:01;10.0;9.2;
49686;PMS5003;36064;38.180;-122.272;2023-05-18T05:55:00;10.2;8.8;
49686;PMS5003;36064;38.180;-122.272;2023-05-18T06:00:00;11.8;11.2;
49686;PMS5003;36064;38.180;-122.272;2023-05-18T06:05:00;9.4;9.0;
49686;PMS5003;36064;38.180;-122.272;2023-05-18T06:10:00;7.4;7.4;
49686;PMS5003;36064;38.180;-122.272;2023-05-18T06:15:00;9.2;8.8;
49686;PMS5003;36064;38.180;-122.272;2023-05-18T06:20:00;11.8;11.4;
49686;PMS5003;36064;38.180;-122.272;2023-05-18T06:25:00;8.0;7.6;
49686;PMS5003;36064;38.180;-122.272;2023-05-18T06:30:00;13.8;12.6;
49686;PMS5003;36064;38.180;-122.272;2023-05-18T06:35:00;5.8;5.8;
49686;PMS5003;36064;38.180;-122.272;2023-05-18T06:40:00;6.4;5.6;
49686;PMS5003;36064;38.180;-122.272;2023-05-18T06:45:00;7.6;5.6;
49686;PMS5003;36064;38.180;-122.272;2023-05-18T06:50:00;7.0;6.2;
49686;PMS5003;36064;38.180;-122.272;2023-05-18T06:55:00;7.8;6.2;
49686;PMS5003;36064;38.180;-122.272;2023-05-18T07:00:00;9.6;7.0;
49686;PMS5003;36064;38.180;-122.272;2023-05-18T07:05:00;6.8;6.2;
49686;PMS5003;36064;38.180;-122.272;2023-05-18T07:10:00;8.0;7.4;
49686;PMS5003;36064;38.180;-122.272;2023-05-18T07:15:00;7.8;7.4;
49686;PMS5003;36064;38.180;-122.272;2023-05-18T07:20:00;8.2;7.0;
49686;PMS5003;36064;38.180;-122.272;2023-05-18T07:25:00;6.8;6.0;
49686;PMS5003;36064;38.180;-122.272;2023-05-18T07:30:00;6.2;6.0;
49686;PMS5003;36064;38.180;-122.272;2023-05-18T07:35:00;6.6;6.6;
49686;PMS5003;36064;38.180;-122.272;2023-05-18T07:40:00;8.2;7.0;
49686;PMS5003;36064;38.180;-122.272;2023-05-18T07:45:00;8.6;6.6;
49686;PMS5003;36064;38.180;-122.272;2023-05-18T07:50:00;5.6;5.4;
49686;PMS5003;36064;38.180;-122.272;2023-05-18T07:55:00;8.0;8.4;
49686;PMS5003;36064;38.180;-122.272;2023-05-18T08:00:00;7.4;6.0;
49686;PMS5003;36064;38.180;-122.272;2023-05-18T08:05:00;5.6;5.2;
49686;PMS5003;36064;38.180;-122.272;2023-05-18T08:10:01;6.2;5.8;
49686;PMS5003;36064;38.180;-122.272;2023-05-18T08:15:00;9.2;7.2;
49686;PMS5003;36064;38.180;-122.272;2023-05-18T08:20:01;6.4;5.4;
49686;PMS5003;36064;38.180;-122.272;2023-05-18T08:25:00;7.6;6.6;
49686;PMS5003;36064;38.180;-122.272;2023-05-18T08:30:00;7.4;6.2;
49686;PMS5003;36064;38.180;-122.272;2023-05-18T08:35:00;7.0;6.2;
49686;PMS5003;36064;38.180;-122.272;2023-05-18T08:40:00;7.6;7.0;
49686;PMS5003;36064;38.180;-122.272;2023-05-18T08:45:05;5.2;5.8;
49686;PMS5003;36064;38.180;-122.272;2023-05-18T08:50:00;7.4;7.2;
49686;PMS5003;36064;38.180;-122.272;2023-05-18T08:55:00;7.8;7.0;
49686;PMS5003;36064;38.180;-122.272;2023-05-18T09:00:00;7.2;6.2;
49686;PMS5003;36064;38.180;-122.272;2023-05-18T09:05:00;6.0;6.0;
49686;PMS5003;36064;38.180;-122.272;2023-05-18T09:10:00;7.6;6.6;
49686;PMS5003;36064;38.180;-122.272;2023-05-18T09:15:00;4.6;4.2;
49686;PMS5003;36064;38.180;-122.272;2023-05-18T09:20:00;5.8;5.8;
49686;PMS5003;36064;38.180;-122.272;2023-05-18T09:25:00;7.2;6.8;
49686;PMS5003;36064;38.180;-122.272;2023-05-18T09:30:00;7.4;6.6;
49686;PMS5003;36064;38.180;-122.272;2023-05-18T09:35:02;7.4;6.6;
49686;PMS5003;36064;38.180;-122.272;2023-05-18T09:40:01;9.2;6.8;
49686;PMS5003;36064;38.180;-122.272;2023-05-18T09:45:00;12.4;11.2;
49686;PMS5003;36064;38.180;-122.272;2023-05-18T09:50:00;9.2;8.6;
49686;PMS5003;36064;38.180;-122.272;2023-05-18T09:55:00;12.0;11.4;
49686;PMS5003;36064;38.180;-122.272;2023-05-18T10:00:02;14.2;12.4;
49686;PMS5003;36064;38.180;-122.272;2023-05-18T10:05:01;14.6;13.6;
49686;PMS5003;36064;38.180;-122.272;2023-05-18T10:10:01;11.2;10.4;
49686;PMS5003;36064;38.180;-122.272;2023-05-18T10:15:00;9.0;8.0;
49686;PMS5003;36064;38.180;-122.272;2023-05-18T10:20:00;6.2;6.2;
49686;PMS5003;36064;38.180;-122.272;2023-05-18T10:25:01;7.6;6.8;
49686;PMS5003;36064;38.180;-122.272;2023-05-18T10:30:00;9.0;8.6;
49686;PMS5003;36064;38.180;-122.272;2023-05-18T10:35:00;9.0;8.6;
49686;PMS5003;36064;38.180;-122.272;2023-05-18T10:40:01;7.0;6.4;
49686;PMS5003;36064;38.180;-122.272;2023-05-18T10:45:00;6.2;6.2;
49686;PMS5003;36064;38.180;-122.272;2023-05-18T10:50:00;4.8;4.4;
49686;PMS5003;36064;38.180;-122.272;2023-05-18T10:55:00;6.4;6.0;
49686;PMS5003;36064;38.180;-122.272;2023-05-18T11:00:01;3.8;4.0;
49686;PMS5003;36064;38.180;-122.272;2023-05-18T11:05:04;6.0;5.2;
49686;PMS5003;36064;38.180;-122.272;2023-05-18T11:10:00;4.8;4.6;
49686;PMS5003;36064;38.180;-122.272;2023-05-18T11:15:00;6.8;6.8;
49686;PMS5003;36064;38.180;-122.272;2023-05-18T11:25:02;7.4;6.8;
49686;PMS5003;36064;38.180;-122.272;2023-05-18T11:30:00;9.0;8.4;
49686;PMS5003;36064;38.180;-122.272;2023-05-18T11:35:00;7.6;7.4;
49686;PMS5003;36064;38.180;-122.272;2023-05-18T11:40:00;5.6;5.4;
49686;PMS5003;36064;38.180;-122.272;2023-05-18T11:45:05;6.0;5.6;
49686;PMS5003;36064;38.180;-122.272;2023-05-18T11:50:00;3.6;3.6;
49686;PMS5003;36064;38.180;-122.272;2023-05-18T11:55:00;8.0;7.2;
49686;PMS5003;36064;38.180;-122.272;2023-05-18T12:00:02;7.8;6.4;
49686;PMS5003;36064;38.180;-122.272;2023-05-18T12:05:01;5.8;5.4;
49686;PMS5003;36064;38.180;-122.272;2023-05-18T12:10:01;7.0;7.0;
49686;PMS5003;36064;38.180;-122.272;2023-05-18T12:15:01;6.6;6.4;
49686;PMS5003;36064;38.180;-122.272;2023-05-18T12:20:00;9.0;8.6;
49686;PMS5003;36064;38.180;-122.272;2023-05-18T12:25:01;7.2;6.8;
49686;PMS5003;36064;38.180;-122.272;2023-05-18T12:30:00;13.2;11.4;
49686;PMS5003;36064;38.180;-122.272;2023-05-18T12:35:00;9.4;9.2;
49686;PMS5003;36064;38.180;-122.272;2023-05-18T12:40:00;9.8;9.0;
49686;PMS5003;36064;38.180;-122.272;2023-05-18T12:45:00;11.4;11.4;
49686;PMS5003;36064;38.180;-122.272;2023-05-18T12:50:01;11.4;10.0;
49686;PMS5003;36064;38.180;-122.272;2023-05-18T12:55:00;11.6;11.2;
49686;PMS5003;36064;38.180;-122.272;2023-05-18T13:00:00;10.8;10.6;
49686;PMS5003;36064;38.180;-122.272;2023-05-18T13:05:04;9.8;9.4;
49686;PMS5003;36064;38.180;-122.272;2023-05-18T13:10:00;12.8;12.0;
49686;PMS5003;36064;38.180;-122.272;2023-05-18T13:15:06;9.6;9.2;
49686;PMS5003;36064;38.180;-122.272;2023-05-18T13:20:01;9.4;9.0;
49686;PMS5003;36064;38.180;-122.272;2023-05-18T13:25:00;9.0;7.6;
49686;PMS5003;36064;38.180;-122.272;2023-05-18T13:30:00;8.6;8.0;
49686;PMS5003;36064;38.180;-122.272;2023-05-18T13:35:00;7.4;7.0;
49686;PMS5003;36064;38.180;-122.272;2023-05-18T13:40:00;9.0;7.4;
49686;PMS5003;36064;38.180;-122.272;2023-05-18T13:45:00;9.2;8.6;
49686;PMS5003;36064;38.180;-122.272;2023-05-18T13:50:00;8.6;7.4;
49686;PMS5003;36064;38.180;-122.272;2023-05-18T13:55:00;6.8;6.4;
49686;PMS5003;36064;38.180;-122.272;2023-05-18T14:00:00;10.0;9.0;
49686;PMS5003;36064;38.180;-122.272;2023-05-18T14:05:00;7.2;7.0;
49686;PMS5003;36064;38.180;-122.272;2023-05-18T14:10:00;7.8;6.6;
49686;PMS5003;36064;38.180;-122.272;2023-05-18T14:15:00;8.4;7.8;
49686;PMS5003;36064;38.180;-122.272;2023-05-18T14:20:00;6.0;6.0;
49686;PMS5003;36064;38.180;-122.272;2023-05-18T14:25:00;4.0;4.0;
49686;PMS5003;36064;38.180;-122.272;2023-05-18T14:30:00;5.8;5.0;
49686;PMS5003;36064;38.180;-122.272;2023-05-18T14:35:00;5.6;4.8;
49686;PMS5003;36064;38.180;-122.272;2023-05-18T14:40:01;6.8;6.6;
49686;PMS5003;36064;38.180;-122.272;2023-05-18T14:45:00;7.4;6.8;
49686;PMS5003;36064;38.180;-122.272;2023-05-18T14:50:00;7.0;6.4;
49686;PMS5003;36064;38.180;-122.272;2023-05-18T14:55:00;6.6;5.2;
49686;PMS5003;36064;38.180;-122.272;2023-05-18T15:00:00;4.6;4.6;
49686;PMS5003;36064;38.180;-122.272;2023-05-18T15:05:00;5.8;4.6;
49686;PMS5003;36064;38.180;-122.272;2023-05-18T15:10:00;3.8;3.4;
49686;PMS5003;36064;38.180;-122.272;2023-05-18T15:15:00;4.6;4.6;
49686;PMS5003;36064;38.180;-122.272;2023-05-18T15:20:00;4.8;4.4;
49686;PMS5003;36064;38.180;-122.272;2023-05-18T15:25:00;5.2;4.8;
49686;PMS5003;36064;38.180;-122.272;2023-05-18T15:30:00;5.2;5.0;
49686;PMS5003;36064;38.180;-122.272;2023-05-18T15:35:00;5.2;4.8;
49686;PMS5003;36064;38.180;-122.272;2023-05-18T15:40:00;6.6;6.6;
49686;PMS5003;36064;38.180;-122.272;2023-05-18T15:45:00;7.6;6.8;
49686;PMS5003;36064;38.180;-122.272;2023-05-18T15:50:00;8.6;7.8;
49686;PMS5003;36064;38.180;-122.272;2023-05-18T15:55:00;8.2;7.8;
49686;PMS5003;36064;38.180;-122.272;2023-05-18T16:00:00;7.0;6.6;
49686;PMS5003;36064;38.180;-122.272;2023-05-18T16:05:00;9.0;7.8;
49686;PMS5003;36064;38.180;-122.272;2023-05-18T16:10:00;7.6;6.4;
49686;PMS5003;36064;38.180;-122.272;2023-05-18T16:15:00;7.8;7.4;
49686;PMS5003;36064;38.180;-122.272;2023-05-18T16:20:00;6.4;5.4;
49686;PMS5003;36064;38.180;-122.272;2023-05-18T16:25:00;7.6;7.0;
49686;PMS5003;36064;38.180;-122.272;2023-05-18T16:30:00;6.6;6.6;
49686;PMS5003;36064;38.180;-122.272;2023-05-18T16:35:00;5.4;5.4;
49686;PMS5003;36064;38.180;-122.272;2023-05-18T16:40:00;4.4;4.0;
49686;PMS5003;36064;38.180;-122.272;2023-05-18T16:45:00;5.8;4.8;
49686;PMS5003;36064;38.180;-122.272;2023-05-18T16:50:00;6.2;6.6;
49686;PMS5003;36064;38.180;-122.272;2023-05-18T16:55:00;7.6;6.4;
49686;PMS5003;36064;38.180;-122.272;2023-05-18T17:00:00;6.0;5.6;
49686;PMS5003;36064;38.180;-122.272;2023-05-18T17:05:00;5.0;5.0;
49686;PMS5003;36064;38.180;-122.272;2023-05-18T17:10:00;5.0;5.0;
49686;PMS5003;36064;38.180;-122.272;2023-05-18T17:15:00;5.8;5.0;
49686;PMS5003;36064;38.180;-122.272;2023-05-18T17:20:00;5.6;5.4;
49686;PMS5003;36064;38.180;-122.272;2023-05-18T17:25:00;6.0;6.6;
49686;PMS5003;36064;38.180;-122.272;2023-05-18T17:30:00;7.6;5.2;
49686;PMS5003;36064;38.180;-122.272;2023-05-18T17:35:00;4.0;3.4;
49686;PMS5003;36064;38.180;-122.272;2023-05-18T17:40:00;6.4;5.6;
49686;PMS5003;36064;38.180;-122.272;2023-05-18T17:45:00;7.0;6.4;
49686;PMS5003;36064;38.180;-122.272;2023-05-18T17:50:00;5.8;5.4;
49686;PMS5003;36064;38.180;-122.272;2023-05-18T17:55:00;3.4;3.4;
49686;PMS5003;36064;38.180;-122.272;2023-05-18T18:00:00;5.4;5.4;
49686;PMS5003;36064;38.180;-122.272;2023-05-18T18:05:00;5.6;6.0;
49686;PMS5003;36064;38.180;-122.272;2023-05-18T18:10:00;6.6;4.6;
49686;PMS5003;36064;38.180;-122.272;2023-05-18T18:15:00;5.0;4.8;
49686;PMS5003;36064;38.180;-122.272;2023-05-18T18:20:00;10.0;7.6;
49686;PMS5003;36064;38.180;-122.272;2023-05-18T18:25:00;10.2;6.6;
49686;PMS5003;36064;38.180;-122.272;2023-05-18T18:30:00;5.0;4.4;
49686;PMS5003;36064;38.180;-122.272;2023-05-18T18:35:01;4.8;4.0;
49686;PMS5003;36064;38.180;-122.272;2023-05-18T18:40:00;6.6;4.8;
49686;PMS5003;36064;38.180;-122.272;2023-05-18T18:45:00;4.8;4.2;
49686;PMS5003;36064;38.180;-122.272;2023-05-18T18:50:00;4.2;4.2;
49686;PMS5003;36064;38.180;-122.272;2023-05-18T18:55:00;5.2;4.0;
49686;PMS5003;36064;38.180;-122.272;2023-05-18T19:00:00;4.4;4.4;
49686;PMS5003;36064;38.180;-122.272;2023-05-18T19:05:00;3.8;4.4;
49686;PMS5003;36064;38.180;-122.272;2023-05-18T19:10:00;4.2;4.0;
49686;PMS5003;36064;38.180;-122.272;2023-05-18T19:15:00;5.8;4.6;
49686;PMS5003;36064;38.180;-122.272;2023-05-18T19:20:00;4.4;3.8;
49686;PMS5003;36064;38.180;-122.272;2023-05-18T19:25:00;3.2;2.8;
49686;PMS5003;36064;38.180;-122.272;2023-05-18T19:30:00;4.6;4.6;
49686;PMS5003;36064;38.180;-122.272;2023-05-18T19:35:00;4.4;4.0;
49686;PMS5003;36064;38.180;-122.272;2023-05-18T19:40:00;4.8;4.6;
49686;PMS5003;36064;38.180;-122.272;2023-05-18T19:45:00;4.4;4.6;
49686;PMS5003;36064;38.180;-122.272;2023-05-18T19:50:00;5.8;5.0;
49686;PMS5003;36064;38.180;-122.272;2023-05-18T19:55:00;4.8;4.2;
49686;PMS5003;36064;38.180;-122.272;2023-05-18T20:00:00;5.6;5.0;
49686;PMS5003;36064;38.180;-122.272;2023-05-18T20:05:00;3.8;3.6;
49686;PMS5003;36064;38.180;-122.272;2023-05-18T20:10:00;4.6;4.6;
49686;PMS5003;36064;38.180;-122.272;2023-05-18T20:15:00;4.0;4.0;
49686;PMS5003;36064;38.180;-122.272;2023-05-18T20:20:00;4.6;4.6;
49686;PMS5003;36064;38.180;-122.272;2023-05-18T20:25:00;5.0;4.6;
49686;PMS5003;36064;38.180;-122.272;2023-05-18T20:30:00;9.2;8.4;
49686;PMS5003;36064;38.180;-122.272;2023-05-18T20:35:00;5.8;5.8;
49686;PMS5003;36064;38.180;-122.272;2023-05-18T20:40:00;5.2;4.4;
49686;PMS5003;36064;38.180;-122.272;2023-05-18T20:45:00;4.0;3.6;
49686;PMS5003;36064;38.180;-122.272;2023-05-18T20:50:01;4.8;4.0;
49686;PMS5003;36064;38.180;-122.272;2023-05-18T20:55:00;4.4;4.4;
49686;PMS5003;36064;38.180;-122.272;2023-05-18T21:00:00;4.2;4.2;
49686;PMS5003;36064;38.180;-122.272;2023-05-18T21:05:00;5.0;4.4;
49686;PMS5003;36064;38.180;-122.272;2023-05-18T21:10:00;4.6;4.6;
49686;PMS5003;36064;38.180;-122.272;2023-05-18T21:15:00;4.2;3.8;
49686;PMS5003;36064;38.180;-122.272;2023-05-18T21:20:00;5.4;5.2;
49686;PMS5003;36064;38.180;-122.272;2023-05-18T21:25:00;4.8;4.0;
49686;PMS5003;36064;38.180;-122.272;2023-05-18T21:30:00;4.8;4.8;
49686;PMS5003;36064;38.180;-122.272;2023-05-18T21:35:00;4.4;4.0;
49686;PMS5003;36064;38.180;-122.272;2023-05-18T21:40:00;3.8;3.6;
49686;PMS5003;36064;38.180;-122.272;2023-05-18T21:45:00;4.6;4.6;
49686;PMS5003;36064;38.180;-122.272;2023-05-18T21:50:00;5.4;5.0;
49686;PMS5003;36064;38.180;-122.272;2023-05-18T21:55:00;4.0;4.0;
49686;PMS5003;36064;38.180;-122.272;2023-05-18T22:00:00;4.2;3.8;
49686;PMS5003;36064;38.180;-122.272;2023-05-18T22:05:00;5.2;4.4;
49686;PMS5003;36064;38.180;-122.272;2023-05-18T22:10:00;4.6;4.6;
49686;PMS5003;36064;38.180;-122.272;2023-05-18T22:15:00;7.4;5.4;
49686;PMS5003;36064;38.180;-122.272;2023-05-18T22:20:00;5.2;4.2;
49686;PMS5003;36064;38.180;-122.272;2023-05-18T22:25:00;5.4;4.0;
49686;PMS5003;36064;38.180;-122.272;2023-05-18T22:30:00;4.8;5.0;
49686;PMS5003;36064;38.180;-122.272;2023-05-18T22:35:01;4.4;4.0;
49686;PMS5003;36064;38.180;-122.272;2023-05-18T22:40:00;5.4;4.2;
49686;PMS5003;36064;38.180;-122.272;2023-05-18T22:45:00;6.4;6.0;
49686;PMS5003;36064;38.180;-122.272;2023-05-18T22:50:00;5.8;5.6;
49686;PMS5003;36064;38.180;-122.272;2023-05-18T22:55:01;4.0;4.0;
49686;PMS5003;36064;38.180;-122.272;2023-05-18T23:00:00;4.6;4.6;
49686;PMS5003;36064;38.180;-122.272;2023-05-18T23:05:01;3.4;3.4;
49686;PMS5003;36064;38.180;-122.272;2023-05-18T23:10:01;5.0;4.8;
49686;PMS5003;36064;38.180;-122.272;2023-05-18T23:15:00;4.4;3.6;
49686;PMS5003;36064;38.180;-122.272;2023-05-18T23:20:00;6.0;5.8;
49686;PMS5003;36064;38.180;-122.272;2023-05-18T23:25:00;7.4;6.2;
49686;PMS5003;36064;38.180;-122.272;2023-05-18T23:30:00;5.0;4.6;
49686;PMS5003;36064;38.180;-122.272;2023-05-18T23:35:01;5.4;4.8;
49686;PMS5003;36064;38.180;-122.272;2023-05-18T23:40:00;5.2;5.2;
49686;PMS5003;36064;38.180;-122.272;2023-05-18T23:45:00;3.2;3.0;
49686;PMS5003;36064;38.180;-122.272;2023-05-18T23:50:01;5.2;3.8;
49686;PMS5003;36064;38.180;-122.272;2023-05-18T23:55:00;5.8;4.4;
